Breckenridge, TX

9:10 AM CST on March 05, 2015 (GMT -0600)
Abilene Regional | Change Station
CLOSE
Current Station
Airport
Location: Abilene,
Elevation: 1788 ft
Nearby Weather Stations
Active Advisory: Winter Storm Warning Active Notice: Record Report, Local Storm Report

Elev 1788 ft 32.41 °N, 99.68 °W | Updated 1 hour ago

Clear
Clear
22 °F
Feels Like 11 °F
N
10
Wind Variable Wind from North

Today
High -- | Low -- °F
--% Chance of Precip.
Yesterday
High -- | Low -- °F
Precip. -- in
6:58 AM 6:35 PM
Full, 100% visible
Pressure 30.61 in
Visibility 10.0 miles
Clouds Clear
Windchill 11 °F
Dew Point 17 °F
Humidity 82%
Rainfall 0.00 in
Snow Depth Not available.
UV 0 out of 12
Pollen 3.10 out of 12
Air Quality Not available.
Flu Activity Not available.
METAR KABI 051352Z 35009KT 10SM CLR M06/M08 A3056 RMK AO2 SLP365 T10561083

More Conditions Fewer Conditions

Pressure 30.61 in
Visibility 10.0 miles
Clouds Clear
Windchill 11 °F
Dew Point 17 °F
Humidity 82%
Rainfall 0.00 in
Snow Depth Not available.
UV 0 out of 12
Pollen 3.10 out of 12
Air Quality Not available.
Flu Activity Not available.
METAR KABI 051352Z 35009KT 10SM CLR M06/M08 A3056 RMK AO2 SLP365 T10561083

More Conditions Fewer Conditions

10-Day Weather Forecast

Almanac

Astronomy

Mar. 05, 2015 Rise Set
Actual Time
Civil Twilight
Nautical Twilight
Astronomical Twilight
Moon
Length of Visible Light
Length of Day
Tomorrow will be .
, % of the Moon is Illuminated

Today's Extremes

State Highs State Lows

Community

WunderPhotos

Upload Photos

1,802,806 photos uploaded!

WunderBlogs® & News

Nearby

Air Quality

  Air Quality AQ Index Pollutant
Not available.

Snow Depth

Station Depth Elevation

Earthquake Activity

City Distance Mag. Time & Date
Minimum magnitude displayed is 2.5.

Coastal Water Temperatures

Place Temperature

Nearby Weather Stations

Winter Storm Warning
Statement as of 7:40 AM CST on March 05, 2015

... Winter Storm Warning remains in effect until noon CST today...

* timing... the snow has ended.

* Precipitation type... none

* accumulation... no new accumulation.

* Temperatures... rising above freezing by early afternoon.

* Impacts... the snow that fell yesterday and overnight will
continue to create hazardous travel conditions this morning.

Precautionary/preparedness actions...

Accumulating ice... sleet..and snow on roadways... bridges... and
overpasses will make travel treacherous. Exercise extreme caution
if travel is necessary.